Terminal Aerodrome Forecast
Issued by NWS

Home | Current Version | Previous Version | Text Only | Print | Product List | Glossary On
Versions: 1 2 3 4 5 6 7 8 9 10 11 12
389
FTUS46 KHNX 250527
TAFMCE
TAF
KMCE 250527Z 2506/2606 VRB03KT P6SM SKC
     FM251900 27006KT P6SM SKC=

USA.gov is the U.S. government's official web portal to all federal, state and local government web resources and services.